createdAt,value
2019-02-06T00:03:34.709Z,89.16
2019-02-06T00:08:39.132Z,89.29
2019-02-06T00:13:43.365Z,89.25
2019-02-06T00:18:47.646Z,89.06
2019-02-06T00:23:51.898Z,88.92
2019-02-06T00:28:57.173Z,88.68
2019-02-06T00:34:01.397Z,88.51
2019-02-06T00:39:09.737Z,89.05
2019-02-06T00:44:14.051Z,89.79
2019-02-06T00:49:18.303Z,89.95
2019-02-06T00:54:22.891Z,90.29
2019-02-06T00:59:27.327Z,90.31
2019-02-06T01:04:31.784Z,90.40
2019-02-06T01:09:36.610Z,89.69
2019-02-06T01:14:41.291Z,89.31
2019-02-06T01:19:45.651Z,89.27
2019-02-06T01:24:50.165Z,89.53
2019-02-06T01:29:54.421Z,89.96
2019-02-06T01:34:58.846Z,90.28
2019-02-06T01:40:03.111Z,90.41
2019-02-06T01:45:09.547Z,89.59
2019-02-06T01:50:15.182Z,90.16
2019-02-06T01:55:19.446Z,90.59
2019-02-06T02:00:24.711Z,90.08
2019-02-06T02:05:29.268Z,90.40
2019-02-06T02:10:33.552Z,90.06
2019-02-06T02:15:38.183Z,88.96
2019-02-06T02:20:42.466Z,89.78
2019-02-06T02:25:46.800Z,89.84
2019-02-06T02:30:54.540Z,90.19
2019-02-06T02:35:58.813Z,90.13
2019-02-06T02:41:03.106Z,90.25
2019-02-06T02:46:07.382Z,89.60
2019-02-06T02:51:11.743Z,89.10
2019-02-06T02:56:16.019Z,89.80
2019-02-06T03:01:39.217Z,89.44
2019-02-06T03:06:43.583Z,89.28
2019-02-06T03:11:48.009Z,89.34
2019-02-06T03:16:52.624Z,89.84
2019-02-06T03:21:56.910Z,90.28
2019-02-06T03:27:01.252Z,90.15
2019-02-06T03:32:05.824Z,90.57
2019-02-06T03:37:10.339Z,90.37
2019-02-06T03:42:14.606Z,89.35
2019-02-06T03:47:19.070Z,90.23
2019-02-06T03:52:23.335Z,90.37
2019-02-06T03:57:27.758Z,89.93
2019-02-06T04:02:32.054Z,89.34
2019-02-06T04:07:36.299Z,89.69
2019-02-06T04:12:40.667Z,89.75
2019-02-06T04:17:44.934Z,90.05
2019-02-06T04:22:49.191Z,90.20
2019-02-06T04:27:53.452Z,89.17
2019-02-06T04:32:57.708Z,89.43
2019-02-06T04:38:02.017Z,89.41
2019-02-06T04:43:06.730Z,89.52
2019-02-06T04:48:10.984Z,89.25
2019-02-06T04:53:15.259Z,89.88
2019-02-06T04:58:19.530Z,89.98
2019-02-06T05:03:25.878Z,90.35
2019-02-06T05:08:31.950Z,90.07
2019-02-06T05:13:36.210Z,89.85
2019-02-06T05:18:40.551Z,90.22
2019-02-06T05:23:44.806Z,89.56
2019-02-06T05:28:49.160Z,89.52
2019-02-06T05:33:53.420Z,89.26
2019-02-06T05:38:57.963Z,89.61
2019-02-06T05:44:02.342Z,90.45
2019-02-06T05:49:08.683Z,90.51
2019-02-06T05:54:12.957Z,91.21
2019-02-06T05:59:17.289Z,90.82
2019-02-06T06:04:22.544Z,91.16
2019-02-06T06:09:26.791Z,91.18
2019-02-06T06:14:31.060Z,91.20
2019-02-06T06:19:35.404Z,91.24
2019-02-06T06:24:39.922Z,91.55
2019-02-06T06:29:44.222Z,91.19
2019-02-06T06:34:48.508Z,91.21
2019-02-06T06:39:52.822Z,91.36
2019-02-06T06:44:57.142Z,91.04
2019-02-06T06:50:01.438Z,90.40
2019-02-06T06:55:05.902Z,90.24
2019-02-06T07:00:19.225Z,90.17
2019-02-06T07:05:23.650Z,90.31
2019-02-06T07:10:28.035Z,90.08
2019-02-06T07:15:34.015Z,90.22
2019-02-06T07:20:38.276Z,89.80
2019-02-06T07:25:42.542Z,90.12
2019-02-06T07:30:46.942Z,90.26
2019-02-06T07:35:51.215Z,89.91
2019-02-06T07:40:55.593Z,89.79
2019-02-06T07:45:59.848Z,89.81
2019-02-06T07:51:04.110Z,89.67
2019-02-06T07:56:08.357Z,90.15
2019-02-06T08:01:21.957Z,90.27
2019-02-06T08:06:26.324Z,90.15
2019-02-06T08:11:30.570Z,90.08
2019-02-06T08:16:34.900Z,89.71
2019-02-06T08:21:39.148Z,89.61
2019-02-06T08:26:43.411Z,89.56
2019-02-06T08:31:47.683Z,89.67
2019-02-06T08:36:52.015Z,89.81
2019-02-06T08:41:56.270Z,89.94
2019-02-06T08:47:00.623Z,89.82
2019-02-06T08:52:04.990Z,88.74
2019-02-06T08:57:09.272Z,88.62
2019-02-06T09:02:13.518Z,87.91
2019-02-06T09:07:17.816Z,86.93
2019-02-06T09:12:22.154Z,86.42
2019-02-06T09:17:26.620Z,85.50
2019-02-06T09:22:30.951Z,85.39
2019-02-06T09:27:35.572Z,85.04
2019-02-06T09:32:39.925Z,83.84
2019-02-06T09:37:44.174Z,82.49
2019-02-06T09:42:48.502Z,82.75
2019-02-06T09:47:52.751Z,81.62
2019-02-06T09:52:57.592Z,81.24
2019-02-06T09:58:01.841Z,80.00
2019-02-06T10:03:07.112Z,79.75
2019-02-06T10:08:11.425Z,79.06
2019-02-06T10:13:16.555Z,78.19
2019-02-06T10:18:21.197Z,78.15
2019-02-06T10:23:26.911Z,77.27
2019-02-06T10:28:31.487Z,76.44
2019-02-06T10:33:35.993Z,75.47
2019-02-06T10:38:40.284Z,75.35
2019-02-06T10:43:44.596Z,75.05
2019-02-06T10:48:48.963Z,73.59
2019-02-06T10:53:53.669Z,72.58
2019-02-06T10:58:57.976Z,73.43
2019-02-06T11:04:02.330Z,73.11
2019-02-06T11:09:08.340Z,71.97
2019-02-06T11:14:12.632Z,72.28
2019-02-06T11:19:17.621Z,72.11
2019-02-06T11:24:21.974Z,70.52
2019-02-06T11:29:26.261Z,70.38
2019-02-06T11:34:30.665Z,68.16
2019-02-06T11:39:35.046Z,67.32
2019-02-06T11:44:41.862Z,67.09
2019-02-06T11:49:47.340Z,67.31
2019-02-06T11:54:51.643Z,66.96
2019-02-06T11:59:55.933Z,66.65
2019-02-06T12:05:00.470Z,66.48
2019-02-06T12:10:10.111Z,64.25
2019-02-06T12:15:16.825Z,62.37
2019-02-06T12:20:21.603Z,62.61
2019-02-06T12:25:26.230Z,59.95
2019-02-06T12:30:31.772Z,58.45
2019-02-06T12:35:41.524Z,57.40
2019-02-06T12:40:46.478Z,57.08
2019-02-06T12:45:50.912Z,57.40
2019-02-06T12:50:55.237Z,55.07
2019-02-06T12:56:01.337Z,55.89
2019-02-06T13:01:07.962Z,57.14
2019-02-06T13:06:27.182Z,58.72
2019-02-06T13:11:31.635Z,59.10
2019-02-06T13:16:35.924Z,59.21
2019-02-06T13:21:40.294Z,59.21
2019-02-06T13:26:44.728Z,59.86
2019-02-06T13:31:49.379Z,59.39
2019-02-06T13:36:53.670Z,59.76
2019-02-06T13:41:57.952Z,59.44
2019-02-06T13:47:02.274Z,59.21
2019-02-06T13:52:06.735Z,59.58
2019-02-06T13:57:11.249Z,59.85
2019-02-06T14:02:15.586Z,61.15
2019-02-06T14:07:19.839Z,60.43
2019-02-06T14:12:24.567Z,61.25
2019-02-06T14:17:28.984Z,61.65
2019-02-06T14:22:33.718Z,61.61
2019-02-06T14:27:50.982Z,61.97
2019-02-06T14:33:42.790Z,62.97
2019-02-06T14:39:14.512Z,62.04
2019-02-06T14:45:24.355Z,62.13
2019-02-06T14:50:53.882Z,61.78
2019-02-06T14:56:22.792Z,62.08
2019-02-06T15:02:09.776Z,62.33
2019-02-06T15:07:36.140Z,63.08
2019-02-06T15:13:13.910Z,61.47
2019-02-06T15:18:45.543Z,62.41
2019-02-06T15:24:23.794Z,62.38
2019-02-06T15:29:55.366Z,60.97
2019-02-06T15:35:39.534Z,61.11
2019-02-06T15:41:18.393Z,60.78
2019-02-06T15:46:59.182Z,61.22
2019-02-06T15:52:25.233Z,63.27
2019-02-06T15:58:04.086Z,61.87
2019-02-06T16:04:28.849Z,62.68
2019-02-06T16:10:00.350Z,65.68
2019-02-06T16:15:22.624Z,64.14
2019-02-06T16:20:54.909Z,67.57
2019-02-06T16:26:38.045Z,69.08
2019-02-06T16:32:10.257Z,70.29
2019-02-06T16:37:46.301Z,71.20
2019-02-06T16:43:24.350Z,71.87
2019-02-06T16:49:10.628Z,72.70
2019-02-06T16:54:38.150Z,73.11
2019-02-06T17:00:28.614Z,73.20
2019-02-06T17:06:06.508Z,73.97
2019-02-06T17:11:31.195Z,73.93
2019-02-06T17:17:07.078Z,74.82
2019-02-06T17:22:41.464Z,75.40
2019-02-06T17:28:23.781Z,74.74
2019-02-06T17:34:21.062Z,74.39
2019-02-06T17:40:22.368Z,75.63
2019-02-06T17:46:06.636Z,76.95
2019-02-06T17:52:07.390Z,77.88
2019-02-06T17:57:11.652Z,78.73
2019-02-06T18:02:16.451Z,78.28
2019-02-06T18:07:21.025Z,78.64
2019-02-06T18:12:26.978Z,78.57
2019-02-06T18:17:31.599Z,78.56
2019-02-06T18:22:35.856Z,78.67
2019-02-06T18:27:40.269Z,78.76
2019-02-06T18:32:44.653Z,78.72
2019-02-06T18:37:51.162Z,80.19
2019-02-06T18:42:55.740Z,79.79
2019-02-06T18:48:02.194Z,79.63
2019-02-06T18:53:07.495Z,79.85
2019-02-06T18:58:12.446Z,79.67
2019-02-06T19:03:22.450Z,80.60
2019-02-06T19:08:26.725Z,80.18
2019-02-06T19:13:31.077Z,81.00
2019-02-06T19:18:37.321Z,81.12
2019-02-06T19:23:41.412Z,81.31
2019-02-06T19:28:45.668Z,81.57
2019-02-06T19:33:50.095Z,82.53
2019-02-06T19:38:54.367Z,83.25
2019-02-06T19:43:58.713Z,83.21
2019-02-06T19:49:02.974Z,82.90
2019-02-06T19:54:07.259Z,83.23
2019-02-06T19:59:11.629Z,83.41
2019-02-06T20:04:15.975Z,83.11
2019-02-06T20:09:20.457Z,84.23
2019-02-06T20:14:24.846Z,84.26
2019-02-06T20:19:29.088Z,83.90
2019-02-06T20:24:33.438Z,84.32
2019-02-06T20:29:37.820Z,84.24
2019-02-06T20:34:42.649Z,84.36
2019-02-06T20:39:46.953Z,84.65
2019-02-06T20:44:51.274Z,84.55
2019-02-06T20:49:55.537Z,84.35
2019-02-06T20:54:59.789Z,84.75
2019-02-06T21:00:05.500Z,84.71
2019-02-06T21:05:11.375Z,84.65
2019-02-06T21:10:20.613Z,84.91
2019-02-06T21:15:25.081Z,85.31
2019-02-06T21:20:29.956Z,85.25
2019-02-06T21:25:34.775Z,85.18
2019-02-06T21:30:39.349Z,85.43
2019-02-06T21:35:43.693Z,85.04
2019-02-06T21:40:48.091Z,84.81
2019-02-06T21:45:52.458Z,85.41
2019-02-06T21:50:58.024Z,85.16
2019-02-06T21:56:02.333Z,85.02
2019-02-06T22:01:06.676Z,85.02
2019-02-06T22:06:11.002Z,85.44
2019-02-06T22:11:15.341Z,85.55
2019-02-06T22:16:19.814Z,85.42
2019-02-06T22:21:24.117Z,85.63
2019-02-06T22:26:28.751Z,85.32
2019-02-06T22:31:33.100Z,85.52
2019-02-06T22:36:37.377Z,85.28
2019-02-06T22:41:41.638Z,84.98
2019-02-06T22:46:46.004Z,85.29
2019-02-06T22:51:50.514Z,85.57
2019-02-06T22:56:54.996Z,85.30
2019-02-06T23:01:59.980Z,85.08
2019-02-06T23:07:07.129Z,85.76
2019-02-06T23:12:10.601Z,85.92
2019-02-06T23:17:14.921Z,86.01
2019-02-06T23:22:19.225Z,85.76
2019-02-06T23:27:23.912Z,85.76
2019-02-06T23:32:28.732Z,86.25
2019-02-06T23:37:33.952Z,86.31
2019-02-06T23:42:38.266Z,86.35
2019-02-06T23:47:42.933Z,85.91
2019-02-06T23:52:47.304Z,86.10
2019-02-06T23:57:51.644Z,85.97
